Airfield :







YOU CAN JOIN US ON...

 
LOGIN :

Register | Disclaimer

   EN    FR    IT 

 









Legend :    VFR   Marginal VFR   IFR   Intensive IFR   Very Intensive IFR
Visi :
Ceiling :
>= 8 km
>= 3000ft
5 to 8 km
1000 to 3000 ft
1500m to 5 km
500 to 1000 ft
800 to 1500m
200 to 500 ft
< 800m
< 200 ft
Symbols :   Thunderstorms  Fog  Heavy snow  Heavy precipitations  Wind > 20 kt






- Airport Elevation : 71 ft
- IATA code : YBC


CYBC - Baie Comeau

CURRENT METAR :
  • 201500Z AUTO 24008KT 9SM SCT046 17/12 A2989 RMK SLP126 DENSITY ALT 400FT

EXPIRED METARs :
  • 201400Z AUTO 09006KT 9SM CLR 13/09 A2992 RMK SLP134
  • 201300Z AUTO 07007KT 9SM CLR 12/09 A2993 RMK SLP137
  • 201200Z AUTO 07007KT 9SM BKN100 BKN120 11/09 A2992 RMK SLP136
  • 201100Z AUTO 07006KT 9SM SCT055 OVC094 09/08 A2993 RMK SLP139

TAF TAF CYBC
Valid from the 20 at 14:00 until the 21 at 02:00 UTC


201340Z 2014/2102 07007KT P6SM FEW040 BKN060
BECMG 2014/2015 22010KT
FM201500 22010KT P6SM BKN040
FM201800 22012KT P6SM FEW040 SCT160
BECMG 2022/2024 15010KT RMK FCST BASED ON AUTO OBS. NXT FCST BY 202000Z
CZUL FIR / North America



MET'MAP, your aeronautical weather chart ! - Copyright ORBIFLY December 2007 - Disclaimer

ORBIFLY MET'MAP TEAM :

Programming & Development : Alexandra Zaïnal
Original concept : Baudouin d'Aumeries
Technical & hardware support : Manuel Goepfert
Assistance : Marc-Olivier Méhu




SOURCES & CREDITS :

   NOAA